Time;durP1;ratioP1;P1;durP2;ratioP2;P2;SDS_P1;SDS_P2;PMS_P1;PMS_P2;Temp;Humidity;BMP_temperature;BMP_pressure;BME280_temperature;BME280_humidity;BME280_pressure;Samples;Min_cycle;Max_cycle;Signal;HPM_P1;HPM_P2
2024/03/29 21:46:37;;;;;;;7.47;4.97;;;11.20;99.90;;;;;;4904097;27;5692219;-84
2024/03/29 21:49:45;;;;;;;7.50;4.60;;;11.20;99.90;;;;;;5078350;28;20044;-84
2024/03/29 21:52:33;;;;;;;8.45;4.43;;;;;;;;;;5046416;28;20048;-83
2024/03/29 21:55:01;;;;;;;8.73;4.30;;;11.20;99.90;;;;;;5075959;28;20067;-80
2024/03/29 21:57:27;;;;;;;7.82;4.10;;;;;;;;;;5071449;28;20029;-84
2024/03/29 21:59:56;;;;;;;6.25;4.18;;;11.10;99.90;;;;;;5058824;28;20650;-84
2024/03/29 22:02:21;;;;;;;6.93;4.30;;;11.10;99.90;;;;;;5047454;28;20060;-84
2024/03/29 22:04:47;;;;;;;7.43;4.60;;;;;;;;;;5050023;28;20096;-83
2024/03/29 22:07:13;;;;;;;6.88;4.75;;;;;;;;;;5061364;28;20120;-82
2024/03/29 22:09:39;;;;;;;6.63;4.22;;;11.10;99.90;;;;;;5070226;28;20033;-83
2024/03/29 22:12:05;;;;;;;9.65;3.83;;;11.10;99.90;;;;;;5074381;28;20103;-83
2024/03/29 22:14:30;;;;;;;8.38;4.28;;;11.20;99.90;;;;;;5046818;28;20479;-83
2024/03/29 22:16:56;;;;;;;8.55;4.40;;;11.30;99.90;;;;;;5047149;28;20025;-84
2024/03/29 22:19:23;;;;;;;8.45;4.53;;;11.50;99.90;;;;;;5055927;28;20056;-85
2024/03/29 22:21:49;;;;;;;5.68;3.80;;;11.20;99.90;;;;;;5045307;28;20074;-85
2024/03/29 22:24:16;;;;;;;7.82;3.90;;;11.20;99.90;;;;;;5062780;28;20089;-84
2024/03/29 22:26:47;;;;;;;7.00;3.95;;;11.30;99.90;;;;;;5070928;28;20021;-84
2024/03/29 22:29:13;;;;;;;;;;;11.20;99.90;;;;;;5063823;28;20033;-83
2024/03/29 22:31:40;;;;;;;8.13;4.03;;;11.20;99.90;;;;;;5057522;28;19912;-84
2024/03/29 22:34:06;;;;;;;6.97;3.88;;;13.20;99.90;;;;;;5055363;28;20028;-84
2024/03/29 22:36:33;;;;;;;7.85;4.18;;;11.10;99.90;;;;;;5068785;28;20025;-85
2024/03/29 22:39:00;;;;;;;9.48;4.30;;;11.20;99.90;;;;;;5052345;28;20056;-84
2024/03/29 22:41:26;;;;;;;5.43;3.08;;;11.20;99.90;;;;;;5065758;28;20028;-85
2024/03/29 22:43:51;;;;;;;8.95;4.68;;;11.20;99.90;;;;;;5067545;28;20020;-84
2024/03/29 22:46:17;;;;;;;7.30;3.65;;;11.20;99.90;;;;;;5060810;28;20106;-85
2024/03/29 22:48:43;;;;;;;7.40;3.53;;;11.30;99.90;;;;;;5054036;28;20021;-84
2024/03/29 22:51:08;;;;;;;5.93;3.00;;;11.20;99.90;;;;;;5047319;28;20096;-87
2024/03/29 22:53:34;;;;;;;6.75;3.17;;;;;;;;;;5045821;28;20384;-83
2024/03/29 22:56:00;;;;;;;6.20;2.83;;;11.30;99.90;;;;;;5045500;28;20037;-84
2024/03/29 22:58:26;;;;;;;6.38;3.65;;;11.30;99.90;;;;;;5044878;28;20043;-85
2024/03/29 23:00:51;;;;;;;7.00;2.85;;;12.40;99.90;;;;;;5048275;28;20033;-85
2024/03/29 23:03:17;;;;;;;6.03;2.72;;;12.10;99.90;;;;;;5046870;28;20143;-84
2024/03/29 23:05:42;;;;;;;4.70;2.72;;;11.40;99.90;;;;;;5053285;28;20054;-83
2024/03/29 23:08:08;;;;;;;5.50;2.60;;;11.50;99.90;;;;;;5037622;28;20104;-85
2024/03/29 23:10:33;;;;;;;5.93;2.83;;;11.60;99.90;;;;;;5036498;28;20029;-83
2024/03/29 23:12:59;;;;;;;4.43;2.55;;;11.50;99.90;;;;;;5048853;28;20041;-85
2024/03/29 23:15:25;;;;;;;3.55;2.20;;;11.50;99.90;;;;;;5037155;28;20502;-85
2024/03/29 23:17:50;;;;;;;5.30;2.33;;;11.50;99.90;;;;;;5035901;28;20021;-83
2024/03/29 23:20:16;;;;;;;4.28;2.13;;;11.90;99.90;;;;;;5033302;28;20029;-84
2024/03/29 23:22:42;;;;;;;6.57;2.33;;;11.60;99.90;;;;;;5034145;28;20048;-85
2024/03/29 23:25:09;;;;;;;4.05;2.10;;;11.60;99.90;;;;;;5039924;28;20047;-83
2024/03/29 23:27:35;;;;;;;3.08;2.00;;;11.60;99.90;;;;;;5039451;28;20032;-86
2024/03/29 23:30:02;;;;;;;3.67;1.80;;;11.70;99.90;;;;;;5038601;28;20101;-83
2024/03/29 23:32:28;;;;;;;3.83;1.70;;;11.70;99.90;;;;;;5036941;28;20033;-84
2024/03/29 23:34:54;;;;;;;3.63;2.05;;;11.90;99.90;;;;;;5038382;28;20286;-85
2024/03/29 23:37:20;;;;;;;4.38;1.90;;;11.80;99.90;;;;;;5039690;28;20032;-86
2024/03/29 23:39:46;;;;;;;4.60;1.98;;;11.80;99.90;;;;;;5044100;28;20039;-84
2024/03/29 23:42:14;;;;;;;7.28;2.08;;;11.60;99.90;;;;;;5045291;28;20116;-84
2024/03/29 23:44:40;;;;;;;5.35;1.92;;;11.70;99.90;;;;;;5059627;28;20029;-83
2024/03/29 23:47:09;;;;;;;5.38;2.28;;;11.90;99.90;;;;;;5041039;28;20036;-84
2024/03/29 23:49:37;;;;;;;3.88;1.65;;;11.80;99.90;;;;;;5041058;28;20060;-84
2024/03/29 23:52:03;;;;;;;5.30;2.25;;;11.80;99.90;;;;;;5062065;28;20029;-83
2024/03/29 23:54:30;;;;;;;5.60;3.40;;;11.70;99.90;;;;;;5039281;28;20070;-85
2024/03/29 23:56:56;;;;;;;5.13;3.47;;;11.70;99.90;;;;;;5054834;28;20045;-83
2024/03/29 23:59:22;;;;;;;6.22;3.63;;;11.50;99.90;;;;;;5034969;28;20032;-85
